createdAt,value
2022-12-11T00:00:27.297Z,14.37
2022-12-11T00:02:53.882Z,14.39
2022-12-11T00:05:20.479Z,14.37
2022-12-11T00:07:47.067Z,14.37
2022-12-11T00:10:13.697Z,14.39
2022-12-11T00:12:40.241Z,14.40
2022-12-11T00:15:07.472Z,14.41
2022-12-11T00:17:34.290Z,14.44
2022-12-11T00:20:00.849Z,14.46
2022-12-11T00:22:27.391Z,14.46
2022-12-11T00:24:53.939Z,14.48
2022-12-11T00:27:20.441Z,14.50
2022-12-11T00:29:46.982Z,14.51
2022-12-11T00:32:13.531Z,14.51
2022-12-11T00:34:40.231Z,14.51
2022-12-11T00:37:06.881Z,14.52
2022-12-11T00:39:33.520Z,14.51
2022-12-11T00:42:00.222Z,14.50
2022-12-11T00:44:26.799Z,14.49
2022-12-11T00:46:53.379Z,14.47
2022-12-11T00:49:19.905Z,14.47
2022-12-11T00:51:46.427Z,14.46
2022-12-11T00:54:12.958Z,14.44
2022-12-11T00:56:39.741Z,14.41
2022-12-11T00:59:06.543Z,14.39
2022-12-11T01:01:33.515Z,14.39
2022-12-11T01:04:00.149Z,14.38
2022-12-11T01:06:28.016Z,14.37
2022-12-11T01:09:30.805Z,14.38
2022-12-11T01:11:57.575Z,14.39
2022-12-11T01:14:24.157Z,14.40
2022-12-11T01:16:50.724Z,14.39
2022-12-11T01:19:17.318Z,14.40
2022-12-11T01:21:43.902Z,14.42
2022-12-11T01:24:10.442Z,14.44
2022-12-11T01:26:37.010Z,14.46
2022-12-11T01:29:03.666Z,14.49
2022-12-11T01:31:30.204Z,14.49
2022-12-11T01:33:56.834Z,14.50
2022-12-11T01:36:23.841Z,14.50
2022-12-11T01:38:50.682Z,14.52
2022-12-11T01:41:18.042Z,14.53
2022-12-11T01:44:03.062Z,14.54
2022-12-11T01:46:31.485Z,14.53
2022-12-11T01:48:59.203Z,14.53
2022-12-11T01:51:26.558Z,14.52
2022-12-11T01:53:58.690Z,14.50
2022-12-11T01:56:25.324Z,14.48
2022-12-11T01:58:56.946Z,14.48
2022-12-11T02:01:32.703Z,14.46
2022-12-11T02:04:00.008Z,14.43
2022-12-11T02:06:48.090Z,14.42
2022-12-11T02:09:17.752Z,14.40
2022-12-11T02:11:50.050Z,14.39
2022-12-11T02:14:36.853Z,14.39
2022-12-11T02:17:10.476Z,14.39
2022-12-11T02:19:43.122Z,14.37
2022-12-11T02:22:13.952Z,14.37
2022-12-11T02:25:03.858Z,14.38
2022-12-11T02:27:59.433Z,14.39
2022-12-11T02:30:26.223Z,14.40
2022-12-11T02:32:57.340Z,14.41
2022-12-11T02:35:38.087Z,14.43
2022-12-11T02:38:10.594Z,14.45
2022-12-11T02:40:39.388Z,14.48
2022-12-11T02:43:08.685Z,14.49
2022-12-11T02:45:35.749Z,14.52
2022-12-11T02:48:04.200Z,14.52
2022-12-11T02:50:30.841Z,14.52
2022-12-11T02:52:57.826Z,14.52
2022-12-11T02:55:25.695Z,14.53
2022-12-11T02:58:00.280Z,14.52
2022-12-11T03:00:26.821Z,14.51
2022-12-11T03:02:53.489Z,14.49
2022-12-11T03:05:20.054Z,14.47
2022-12-11T03:07:46.664Z,14.46
2022-12-11T03:10:15.803Z,14.46
2022-12-11T03:12:46.138Z,14.44
2022-12-11T03:15:16.769Z,14.42
2022-12-11T03:18:25.551Z,14.41
2022-12-11T03:21:01.175Z,14.40
2022-12-11T03:23:34.738Z,14.39
2022-12-11T03:26:08.278Z,14.39
2022-12-11T03:28:56.068Z,14.38
2022-12-11T03:31:27.333Z,14.37
2022-12-11T03:33:56.686Z,14.39
2022-12-11T03:36:31.781Z,14.38
2022-12-11T03:39:01.301Z,14.39
2022-12-11T03:41:29.192Z,14.41
2022-12-11T03:43:58.263Z,14.43
2022-12-11T03:46:30.487Z,14.46
2022-12-11T03:49:01.169Z,14.48
2022-12-11T03:51:30.060Z,14.48
2022-12-11T03:53:57.038Z,14.49
2022-12-11T03:56:25.758Z,14.50
2022-12-11T03:58:52.341Z,14.52
2022-12-11T04:01:19.358Z,14.50
2022-12-11T04:03:45.931Z,14.53
2022-12-11T04:06:12.561Z,14.50
2022-12-11T04:08:39.090Z,14.49
2022-12-11T04:11:24.126Z,14.50
2022-12-11T04:14:10.634Z,14.48
2022-12-11T04:16:38.605Z,14.44
2022-12-11T04:19:24.245Z,14.43
2022-12-11T04:22:09.556Z,14.43
2022-12-11T04:24:36.124Z,14.40
2022-12-11T04:27:02.705Z,14.38
2022-12-11T04:29:29.279Z,14.37
2022-12-11T04:31:55.823Z,14.36
2022-12-11T04:34:22.408Z,14.34
2022-12-11T04:36:48.993Z,14.34
2022-12-11T04:39:15.578Z,14.32
2022-12-11T04:41:42.253Z,14.34
2022-12-11T04:44:08.868Z,14.33
2022-12-11T04:46:35.690Z,14.34
2022-12-11T04:49:02.326Z,14.36
2022-12-11T04:51:29.149Z,14.38
2022-12-11T04:53:55.714Z,14.40
2022-12-11T04:56:22.449Z,14.42
2022-12-11T04:58:49.026Z,14.44
2022-12-11T05:01:20.808Z,14.48
2022-12-11T05:03:47.578Z,14.49
2022-12-11T05:06:14.218Z,14.51
2022-12-11T05:08:42.378Z,14.51
2022-12-11T05:11:11.630Z,14.52
2022-12-11T05:13:38.436Z,14.52
2022-12-11T05:16:06.541Z,14.52
2022-12-11T05:18:33.316Z,14.50
2022-12-11T05:21:02.263Z,14.50
2022-12-11T05:23:29.308Z,14.47
2022-12-11T05:26:04.519Z,14.46
2022-12-11T05:28:32.899Z,14.43
2022-12-11T05:31:26.577Z,14.43
2022-12-11T05:33:53.816Z,14.41
2022-12-11T05:36:21.714Z,14.39
2022-12-11T05:38:48.521Z,14.35
2022-12-11T05:41:18.240Z,14.35
2022-12-11T05:43:45.271Z,14.34
2022-12-11T05:46:17.199Z,14.35
2022-12-11T05:48:46.067Z,14.34
2022-12-11T05:51:14.243Z,14.33
2022-12-11T05:53:41.740Z,14.34
2022-12-11T05:56:11.257Z,14.32
2022-12-11T05:58:37.979Z,14.34
2022-12-11T06:01:09.137Z,14.37
2022-12-11T06:03:35.688Z,14.38
2022-12-11T06:06:03.631Z,14.41
2022-12-11T06:08:30.490Z,14.43
2022-12-11T06:10:57.215Z,14.45
2022-12-11T06:13:24.189Z,14.48
2022-12-11T06:15:50.887Z,14.49
2022-12-11T06:18:17.596Z,14.49
2022-12-11T06:20:44.198Z,14.50
2022-12-11T06:23:10.927Z,14.51
2022-12-11T06:25:40.633Z,14.50
2022-12-11T06:28:07.433Z,14.48
2022-12-11T06:30:38.322Z,14.47
2022-12-11T06:33:05.877Z,14.46
2022-12-11T06:35:36.139Z,14.44
2022-12-11T06:38:06.741Z,14.42
2022-12-11T06:40:33.313Z,14.41
2022-12-11T06:42:59.839Z,14.39
2022-12-11T06:45:26.409Z,14.38
2022-12-11T06:47:52.993Z,14.35
2022-12-11T06:50:19.626Z,14.35
2022-12-11T06:52:46.201Z,14.35
2022-12-11T06:55:13.074Z,14.33
2022-12-11T06:57:39.921Z,14.34
2022-12-11T07:00:07.132Z,14.32
2022-12-11T07:02:34.370Z,14.34
2022-12-11T07:05:00.973Z,14.34
2022-12-11T07:07:27.540Z,14.35
2022-12-11T07:09:54.131Z,14.37
2022-12-11T07:12:21.139Z,14.40
2022-12-11T07:14:47.706Z,14.42
2022-12-11T07:17:14.488Z,14.43
2022-12-11T07:19:41.182Z,14.46
2022-12-11T07:22:07.754Z,14.48
2022-12-11T07:24:34.429Z,14.48
2022-12-11T07:27:00.968Z,14.49
2022-12-11T07:29:27.511Z,14.51
2022-12-11T07:31:54.136Z,14.49
2022-12-11T07:34:20.814Z,14.49
2022-12-11T07:36:47.392Z,14.48
2022-12-11T07:39:13.961Z,14.46
2022-12-11T07:41:40.709Z,14.44
2022-12-11T07:44:07.242Z,14.43
2022-12-11T07:46:34.358Z,14.40
2022-12-11T07:49:01.430Z,14.38
2022-12-11T07:51:30.657Z,14.38
2022-12-11T07:53:59.543Z,14.35
2022-12-11T07:56:27.383Z,14.34
2022-12-11T07:58:54.222Z,14.31
2022-12-11T08:01:28.612Z,14.31
2022-12-11T08:03:55.841Z,14.31
2022-12-11T08:06:28.054Z,14.29
2022-12-11T08:08:55.510Z,14.28
2022-12-11T08:11:22.107Z,14.28
2022-12-11T08:13:48.896Z,14.30
2022-12-11T08:16:16.450Z,14.30
2022-12-11T08:18:43.876Z,14.33
2022-12-11T08:21:12.020Z,14.34
2022-12-11T08:23:38.585Z,14.37
2022-12-11T08:26:07.177Z,14.40
2022-12-11T08:28:33.770Z,14.42
2022-12-11T08:31:00.403Z,14.44
2022-12-11T08:33:26.951Z,14.47
2022-12-11T08:35:53.520Z,14.46
2022-12-11T08:38:25.200Z,14.47
2022-12-11T08:40:52.198Z,14.47
2022-12-11T08:43:18.825Z,14.46
2022-12-11T08:45:46.438Z,14.45
2022-12-11T08:48:13.048Z,14.44
2022-12-11T08:50:39.585Z,14.43
2022-12-11T08:53:06.152Z,14.40
2022-12-11T08:55:33.380Z,14.41
2022-12-11T08:58:00.080Z,14.39
2022-12-11T09:00:26.662Z,14.38
2022-12-11T09:02:53.243Z,14.36
2022-12-11T09:05:19.837Z,14.33
2022-12-11T09:07:46.402Z,14.33
2022-12-11T09:10:13.061Z,14.32
2022-12-11T09:12:39.794Z,14.32
2022-12-11T09:15:06.983Z,14.32
2022-12-11T09:17:34.637Z,14.31
2022-12-11T09:20:01.675Z,14.30
2022-12-11T09:22:28.520Z,14.30
2022-12-11T09:24:55.105Z,14.31
2022-12-11T09:27:22.144Z,14.34
2022-12-11T09:29:49.297Z,14.36
2022-12-11T09:32:15.823Z,14.37
2022-12-11T09:34:42.372Z,14.41
2022-12-11T09:37:09.346Z,14.42
2022-12-11T09:39:35.897Z,14.44
2022-12-11T09:42:22.219Z,14.46
2022-12-11T09:44:53.819Z,14.47
2022-12-11T09:47:50.506Z,14.49
2022-12-11T09:50:23.942Z,14.49
2022-12-11T09:53:17.141Z,14.48
2022-12-11T09:56:04.954Z,14.48
2022-12-11T09:58:49.047Z,14.47
2022-12-11T10:01:35.836Z,14.43
2022-12-11T10:04:08.036Z,14.42
2022-12-11T10:06:50.733Z,14.39
2022-12-11T10:09:27.790Z,14.38
2022-12-11T10:12:20.802Z,14.37
2022-12-11T10:14:59.930Z,14.36
2022-12-11T10:17:34.264Z,14.33
2022-12-11T10:20:09.794Z,14.32
2022-12-11T10:22:36.530Z,14.32
2022-12-11T10:25:13.252Z,14.32
2022-12-11T10:27:41.061Z,14.30
2022-12-11T10:30:17.989Z,14.29
2022-12-11T10:32:52.433Z,14.29
2022-12-11T10:35:27.155Z,14.32
2022-12-11T10:37:57.208Z,14.34
2022-12-11T10:40:25.841Z,14.36
2022-12-11T10:42:54.213Z,14.36
2022-12-11T10:45:20.781Z,14.39
2022-12-11T10:47:47.336Z,14.41
2022-12-11T10:50:26.133Z,14.44
2022-12-11T10:52:53.401Z,14.45
2022-12-11T10:55:26.223Z,14.49
2022-12-11T10:58:04.145Z,14.49
2022-12-11T11:00:34.652Z,14.49
2022-12-11T11:03:02.111Z,14.48
2022-12-11T11:05:36.187Z,14.49
2022-12-11T11:08:19.359Z,14.46
2022-12-11T11:11:00.331Z,14.47
2022-12-11T11:13:31.122Z,14.44
2022-12-11T11:16:03.269Z,14.43
2022-12-11T11:18:30.691Z,14.41
2022-12-11T11:20:57.531Z,14.39
2022-12-11T11:23:24.875Z,14.36
2022-12-11T11:25:57.849Z,14.35
2022-12-11T11:28:30.255Z,14.33
2022-12-11T11:31:14.471Z,14.34
2022-12-11T11:33:50.530Z,14.33
2022-12-11T11:36:28.675Z,14.31
2022-12-11T11:39:28.822Z,14.32
2022-12-11T11:42:21.316Z,14.31
2022-12-11T11:44:57.199Z,14.34
2022-12-11T11:47:30.917Z,14.35
2022-12-11T11:50:06.652Z,14.38
2022-12-11T11:52:56.189Z,14.39
2022-12-11T11:55:38.612Z,14.42
2022-12-11T11:58:11.702Z,14.43
2022-12-11T12:00:38.299Z,14.45
2022-12-11T12:03:14.178Z,14.46
2022-12-11T12:06:01.354Z,14.49
2022-12-11T12:08:42.032Z,14.49
2022-12-11T12:11:26.131Z,14.48
2022-12-11T12:14:52.648Z,14.47
2022-12-11T12:17:55.968Z,14.46
2022-12-11T12:20:34.527Z,14.44
2022-12-11T12:23:24.087Z,14.41
2022-12-11T12:25:56.241Z,14.39
2022-12-11T12:28:28.601Z,14.37
2022-12-11T12:31:36.464Z,14.36
2022-12-11T12:34:19.661Z,14.37
2022-12-11T12:36:49.249Z,14.34
2022-12-11T12:39:53.964Z,14.33
2022-12-11T12:42:36.255Z,14.34
2022-12-11T12:45:15.025Z,14.32
2022-12-11T12:47:50.396Z,14.33
2022-12-11T12:50:25.427Z,14.34
2022-12-11T12:52:53.138Z,14.36
2022-12-11T12:55:25.834Z,14.37
2022-12-11T12:58:02.070Z,14.40
2022-12-11T13:00:42.879Z,14.42
2022-12-11T13:03:27.589Z,14.43
2022-12-11T13:06:00.448Z,14.47
2022-12-11T13:08:32.589Z,14.48
2022-12-11T13:11:05.415Z,14.49
2022-12-11T13:13:38.791Z,14.50
2022-12-11T13:16:17.513Z,14.51
2022-12-11T13:18:49.013Z,14.50
2022-12-11T13:21:38.190Z,14.49
2022-12-11T13:24:13.722Z,14.48
2022-12-11T13:26:41.152Z,14.46
2022-12-11T13:29:39.954Z,14.43
2022-12-11T13:32:09.430Z,14.42
2022-12-11T13:34:38.484Z,14.40
2022-12-11T13:37:05.816Z,14.38
2022-12-11T13:39:35.063Z,14.37
2022-12-11T13:42:04.960Z,14.34
2022-12-11T13:44:38.126Z,14.32
2022-12-11T13:47:06.126Z,14.32
2022-12-11T13:49:38.205Z,14.31
2022-12-11T13:52:05.637Z,14.30
2022-12-11T13:54:34.766Z,14.29
2022-12-11T13:57:23.316Z,14.29
2022-12-11T13:59:55.419Z,14.30
2022-12-11T14:02:30.993Z,14.30
2022-12-11T14:05:00.333Z,14.33
2022-12-11T14:07:32.970Z,14.35
2022-12-11T14:10:22.184Z,14.38
2022-12-11T14:13:38.282Z,14.41
2022-12-11T14:16:06.151Z,14.42
2022-12-11T14:18:35.047Z,14.45
2022-12-11T14:21:04.343Z,14.44
2022-12-11T14:23:33.374Z,14.45
2022-12-11T14:26:02.591Z,14.46
2022-12-11T14:28:36.669Z,14.44
2022-12-11T14:31:04.305Z,14.44
2022-12-11T14:33:44.350Z,14.43
2022-12-11T14:36:11.585Z,14.41
2022-12-11T14:38:46.701Z,14.40
2022-12-11T14:41:22.715Z,14.38
2022-12-11T14:43:53.242Z,14.37
2022-12-11T14:46:29.209Z,14.35
2022-12-11T14:49:01.778Z,14.33
2022-12-11T14:51:36.273Z,14.31
2022-12-11T14:54:03.359Z,14.30
2022-12-11T14:56:30.216Z,14.30
2022-12-11T14:58:59.774Z,14.29
2022-12-11T15:01:34.952Z,14.28
2022-12-11T15:04:15.363Z,14.30
2022-12-11T15:06:47.130Z,14.30
2022-12-11T15:09:22.004Z,14.30
2022-12-11T15:11:49.363Z,14.32
2022-12-11T15:14:18.859Z,14.34
2022-12-11T15:16:46.715Z,14.38
2022-12-11T15:19:42.837Z,14.41
2022-12-11T15:22:12.021Z,14.43
2022-12-11T15:24:41.147Z,14.45
2022-12-11T15:27:29.106Z,14.46
2022-12-11T15:29:56.795Z,14.48
2022-12-11T15:32:23.551Z,14.48
2022-12-11T15:34:52.014Z,14.48
2022-12-11T15:37:33.091Z,14.48
2022-12-11T15:40:01.440Z,14.47
2022-12-11T15:42:39.687Z,14.43
2022-12-11T15:45:09.881Z,14.43
2022-12-11T15:47:36.836Z,14.42
2022-12-11T15:50:16.483Z,14.40
2022-12-11T15:52:44.730Z,14.38
2022-12-11T15:55:11.578Z,14.36
2022-12-11T15:57:40.570Z,14.34
2022-12-11T16:00:07.755Z,14.33
2022-12-11T16:02:34.399Z,14.32
2022-12-11T16:05:01.012Z,14.31
2022-12-11T16:07:27.642Z,14.30
2022-12-11T16:09:54.194Z,14.28
2022-12-11T16:12:20.811Z,14.29
2022-12-11T16:14:47.462Z,14.30
2022-12-11T16:17:15.149Z,14.30
2022-12-11T16:19:42.375Z,14.32
2022-12-11T16:22:09.781Z,14.34
2022-12-11T16:24:37.646Z,14.35
2022-12-11T16:27:05.297Z,14.36
2022-12-11T16:29:38.165Z,14.40
2022-12-11T16:32:07.083Z,14.40
2022-12-11T16:34:34.561Z,14.44
2022-12-11T16:37:01.696Z,14.43
2022-12-11T16:39:28.289Z,14.44
2022-12-11T16:41:54.855Z,14.44
2022-12-11T16:44:23.799Z,14.43
2022-12-11T16:46:51.302Z,14.44
2022-12-11T16:49:18.355Z,14.42
2022-12-11T16:51:45.171Z,14.41
2022-12-11T16:54:12.218Z,14.39
2022-12-11T16:56:39.209Z,14.39
2022-12-11T16:59:06.495Z,14.37
2022-12-11T17:01:33.510Z,14.34
2022-12-11T17:04:00.333Z,14.33
2022-12-11T17:06:26.937Z,14.32
2022-12-11T17:08:53.650Z,14.30
2022-12-11T17:11:21.975Z,14.29
2022-12-11T17:13:56.066Z,14.30
2022-12-11T17:16:24.892Z,14.29
2022-12-11T17:18:52.576Z,14.28
2022-12-11T17:21:20.557Z,14.28
2022-12-11T17:23:47.139Z,14.29
2022-12-11T17:26:14.542Z,14.28
2022-12-11T17:28:41.173Z,14.31
2022-12-11T17:31:10.220Z,14.33
2022-12-11T17:33:36.849Z,14.35
2022-12-11T17:36:06.495Z,14.37
2022-12-11T17:38:33.122Z,14.38
2022-12-11T17:40:59.722Z,14.40
2022-12-11T17:43:26.426Z,14.42
2022-12-11T17:45:53.253Z,14.43
2022-12-11T17:48:22.425Z,14.44
2022-12-11T17:50:50.499Z,14.43
2022-12-11T17:53:18.394Z,14.44
2022-12-11T17:55:45.509Z,14.43
2022-12-11T17:58:13.221Z,14.42
2022-12-11T18:00:40.967Z,14.42
2022-12-11T18:03:07.557Z,14.42
2022-12-11T18:05:34.126Z,14.39
2022-12-11T18:08:00.724Z,14.38
2022-12-11T18:10:27.571Z,14.37
2022-12-11T18:12:54.165Z,14.34
2022-12-11T18:15:20.733Z,14.34
2022-12-11T18:17:47.297Z,14.31
2022-12-11T18:20:15.930Z,14.32
2022-12-11T18:22:42.941Z,14.33
2022-12-11T18:25:11.825Z,14.32
2022-12-11T18:27:39.000Z,14.30
2022-12-11T18:30:06.457Z,14.33
2022-12-11T18:32:33.013Z,14.32
2022-12-11T18:34:59.829Z,14.33
2022-12-11T18:37:28.061Z,14.36
2022-12-11T18:39:55.121Z,14.38
2022-12-11T18:42:32.762Z,14.39
2022-12-11T18:45:00.141Z,14.40
2022-12-11T18:47:26.737Z,14.43
2022-12-11T18:49:53.883Z,14.43
2022-12-11T18:52:20.481Z,14.46
2022-12-11T18:54:47.437Z,14.47
2022-12-11T18:57:13.992Z,14.46
2022-12-11T18:59:40.603Z,14.46
2022-12-11T19:02:07.822Z,14.47
2022-12-11T19:04:36.091Z,14.44
2022-12-11T19:07:02.704Z,14.43
2022-12-11T19:09:32.701Z,14.40
2022-12-11T19:12:02.264Z,14.40
2022-12-11T19:14:28.934Z,14.38
2022-12-11T19:16:55.536Z,14.36
2022-12-11T19:19:22.398Z,14.35
2022-12-11T19:21:49.977Z,14.33
2022-12-11T19:24:19.656Z,14.31
2022-12-11T19:26:46.341Z,14.31
2022-12-11T19:29:24.977Z,14.31
2022-12-11T19:31:51.758Z,14.30
2022-12-11T19:34:18.465Z,14.31
2022-12-11T19:36:45.079Z,14.30
2022-12-11T19:39:13.453Z,14.30
2022-12-11T19:41:40.827Z,14.32
2022-12-11T19:44:07.993Z,14.33
2022-12-11T19:46:34.878Z,14.34
2022-12-11T19:49:01.568Z,14.37
2022-12-11T19:51:33.882Z,14.38
2022-12-11T19:54:02.839Z,14.41
2022-12-11T19:56:29.414Z,14.42
2022-12-11T19:58:56.287Z,14.42
2022-12-11T20:01:26.371Z,14.44
2022-12-11T20:03:53.947Z,14.46
2022-12-11T20:06:20.586Z,14.44
2022-12-11T20:08:47.550Z,14.44
2022-12-11T20:11:18.483Z,14.42
2022-12-11T20:13:46.629Z,14.42
2022-12-11T20:16:13.709Z,14.40
2022-12-11T20:18:40.636Z,14.39
2022-12-11T20:21:09.971Z,14.37
2022-12-11T20:23:36.637Z,14.36
2022-12-11T20:26:10.951Z,14.34
2022-12-11T20:28:37.747Z,14.32
2022-12-11T20:31:13.563Z,14.31
2022-12-11T20:33:43.227Z,14.29
2022-12-11T20:36:11.434Z,14.28
2022-12-11T20:38:38.175Z,14.28
2022-12-11T20:41:05.481Z,14.28
2022-12-11T20:43:32.108Z,14.28
2022-12-11T20:46:00.141Z,14.28
2022-12-11T20:48:26.838Z,14.28
2022-12-11T20:50:53.385Z,14.31
2022-12-11T20:53:23.235Z,14.32
2022-12-11T20:55:49.834Z,14.35
2022-12-11T20:58:16.408Z,14.38
2022-12-11T21:00:43.797Z,14.40
2022-12-11T21:03:10.462Z,14.43
2022-12-11T21:05:43.303Z,14.44
2022-12-11T21:08:10.300Z,14.46
2022-12-11T21:10:41.546Z,14.47
2022-12-11T21:13:08.481Z,14.47
2022-12-11T21:15:38.705Z,14.47
2022-12-11T21:18:06.330Z,14.47
2022-12-11T21:20:33.119Z,14.47
2022-12-11T21:22:59.926Z,14.46
2022-12-11T21:25:26.588Z,14.44
2022-12-11T21:27:53.131Z,14.42
2022-12-11T21:30:19.699Z,14.41
2022-12-11T21:32:46.226Z,14.37
2022-12-11T21:35:13.188Z,14.37
2022-12-11T21:37:41.825Z,14.35
2022-12-11T21:40:09.601Z,14.33
2022-12-11T21:42:36.207Z,14.33
2022-12-11T21:47:50.194Z,14.30
2022-12-11T21:50:17.326Z,14.32
2022-12-11T21:52:44.069Z,14.32
2022-12-11T21:55:12.046Z,14.32
2022-12-11T21:57:38.733Z,14.32
2022-12-11T22:00:05.914Z,14.34
2022-12-11T22:02:36.001Z,14.35
2022-12-11T22:05:06.157Z,14.35
2022-12-11T22:07:32.704Z,14.39
2022-12-11T22:09:59.272Z,14.40
2022-12-11T22:12:27.831Z,14.44
2022-12-11T22:14:54.921Z,14.46
2022-12-11T22:17:21.735Z,14.47
2022-12-11T22:19:48.538Z,14.48
2022-12-11T22:22:15.088Z,14.48
2022-12-11T22:24:41.750Z,14.48
2022-12-11T22:27:08.328Z,14.49
2022-12-11T22:29:35.566Z,14.47
2022-12-11T22:32:02.162Z,14.46
2022-12-11T22:34:28.743Z,14.45
2022-12-11T22:36:56.227Z,14.42
2022-12-11T22:39:24.421Z,14.42
2022-12-11T22:41:51.002Z,14.38
2022-12-11T22:44:20.281Z,14.38
2022-12-11T22:46:50.241Z,14.36
2022-12-11T22:49:18.690Z,14.33
2022-12-11T22:51:45.401Z,14.31
2022-12-11T22:54:11.970Z,14.31
2022-12-11T22:56:39.043Z,14.31
2022-12-11T22:59:07.454Z,14.31
2022-12-11T23:01:34.230Z,14.31
2022-12-11T23:04:00.808Z,14.29
2022-12-11T23:06:27.420Z,14.30
2022-12-11T23:08:58.069Z,14.32
2022-12-11T23:11:28.084Z,14.31
2022-12-11T23:13:55.234Z,14.36
2022-12-11T23:16:23.353Z,14.36
2022-12-11T23:18:49.953Z,14.38
2022-12-11T23:21:16.509Z,14.41
2022-12-11T23:23:43.174Z,14.43
2022-12-11T23:26:11.956Z,14.44
2022-12-11T23:28:38.986Z,14.44
2022-12-11T23:31:06.192Z,14.46
2022-12-11T23:33:32.841Z,14.47
2022-12-11T23:35:59.822Z,14.47
2022-12-11T23:38:26.575Z,14.46
2022-12-11T23:40:53.339Z,14.43
2022-12-11T23:43:19.911Z,14.44
2022-12-11T23:45:46.803Z,14.42
2022-12-11T23:48:13.928Z,14.39
2022-12-11T23:50:41.692Z,14.38
2022-12-11T23:53:08.340Z,14.36
2022-12-11T23:55:34.971Z,14.34
2022-12-11T23:58:01.544Z,14.32
